Stuart, VA

8:09 AM EDT on April 29, 2017 (GMT -0400)
Rhody Creek | | Change Station

Elev 1401 ft 36.65 °N, 80.25 °W | Updated 10 minutes ago

Overcast
Overcast
69.4 °F
Feels Like 69.4 °F
N
3.0
Wind Variable Wind from WSW
Gusts 6.0 mph

Today
High -- | Low -- °F
--% Chance of Precip.
Yesterday
High -- | Low -- °F
Precip. -- in
Pressure 30.20 in
Visibility 7.0 miles
Clouds Overcast 1000 ft
Dew Point 67 °F
Humidity 91%
Rainfall 0.00 in
Snow Depth Not available.
6:29 AM 8:07 PM
Waxing Crescent, 13% visible
METAR KMTV 291155Z AUTO 00000KT 7SM OVC010 19/19 A3020 RMK AO2 T01940185 10205 20167
Pressure 30.20 in
Visibility 7.0 miles
Clouds Overcast 1000 ft
Dew Point 67 °F
Humidity 91%
Rainfall 0.00 in
Snow Depth Not available.
6:29 AM 8:07 PM
Waxing Crescent, 13% visible
METAR KMTV 291155Z AUTO 00000KT 7SM OVC010 19/19 A3020 RMK AO2 T01940185 10205 20167

Get Severe Weather Alerts

Thanks for signing up!

Be on the lookout for a verification email in your inbox.

You'll start receiving the daily forecast at 8 AM.

×

10-Day Weather Forecast

Almanac

Astronomy

Apr. 29, 2017 Rise Set
Actual Time
Civil Twilight
Nautical Twilight
Astronomical Twilight
Moon
Length of Visible Light
Length of Day
Tomorrow will be .
, % of the Moon is Illuminated

Today's Extremes

State Highs State Lows

Community

WunderPhotos

WunderBlog® & News

Nearby

Air Quality

  Air Quality AQ Index Pollutant
Not available.

Snow Depth

Station Depth Elevation

Earthquake Activity

City Distance Mag. Time & Date
Minimum magnitude displayed is 2.5.

Coastal Water Temperatures

Place Temperature

Stations

Nearby Weather Stations

Station Location Temp. Windchill Dew Point Humidity Wind Precip. Elev Updated Type
                   

Watches & Warnings

There are currently no watches in effect.